createdAt,value
2022-11-16T00:01:24.394Z,30.14
2022-11-16T00:03:56.363Z,30.15
2022-11-16T00:06:26.937Z,30.15
2022-11-16T00:09:21.855Z,30.15
2022-11-16T00:11:57.326Z,30.16
2022-11-16T00:14:29.952Z,30.16
2022-11-16T00:17:01.747Z,30.15
2022-11-16T00:19:32.572Z,30.17
2022-11-16T00:22:02.767Z,30.17
2022-11-16T00:24:32.860Z,30.18
2022-11-16T00:27:03.152Z,30.18
2022-11-16T00:29:33.368Z,30.18
2022-11-16T00:32:03.642Z,30.17
2022-11-16T00:34:34.685Z,30.17
2022-11-16T00:37:04.967Z,30.17
2022-11-16T00:39:36.174Z,30.16
2022-11-16T00:42:06.633Z,30.17
2022-11-16T00:44:36.898Z,30.15
2022-11-16T00:47:07.270Z,30.16
2022-11-16T00:49:37.580Z,30.17
2022-11-16T00:52:07.820Z,30.17
2022-11-16T00:54:38.797Z,30.18
2022-11-16T00:57:09.006Z,30.19
2022-11-16T00:59:39.779Z,30.20
2022-11-16T01:02:09.991Z,30.19
2022-11-16T01:04:43.371Z,30.20
2022-11-16T01:07:14.058Z,30.20
2022-11-16T01:09:44.448Z,30.22
2022-11-16T01:12:15.050Z,30.23
2022-11-16T01:14:47.190Z,30.22
2022-11-16T01:17:18.182Z,30.23
2022-11-16T01:19:48.446Z,30.24
2022-11-16T01:22:18.687Z,30.25
2022-11-16T01:24:49.626Z,30.25
2022-11-16T01:27:19.844Z,30.26
2022-11-16T01:29:49.940Z,30.26
2022-11-16T01:32:20.547Z,30.26
2022-11-16T01:34:51.855Z,30.26
2022-11-16T01:37:32.871Z,30.27
2022-11-16T01:40:03.288Z,30.27
2022-11-16T01:42:35.740Z,30.27
2022-11-16T01:45:18.533Z,30.28
2022-11-16T01:47:50.017Z,30.29
2022-11-16T01:50:23.952Z,30.29
2022-11-16T01:53:03.349Z,30.29
2022-11-16T11:59:33.741Z,30.28
2022-11-16T12:02:11.017Z,30.30
2022-11-16T12:05:02.923Z,30.33
2022-11-16T12:07:49.909Z,30.43
2022-11-16T12:10:48.776Z,30.50
2022-11-16T12:13:55.680Z,30.56
2022-11-16T12:17:00.651Z,30.57
2022-11-16T12:19:44.635Z,30.55
2022-11-16T12:22:40.978Z,30.61
2022-11-16T12:25:20.789Z,30.62
2022-11-16T12:27:53.690Z,30.68
2022-11-16T12:30:26.128Z,30.63
2022-11-16T12:33:08.329Z,30.62
2022-11-16T12:35:58.522Z,30.60
2022-11-16T12:38:37.784Z,30.67
2022-11-16T12:41:28.788Z,30.67
2022-11-16T12:44:14.989Z,30.68
2022-11-16T12:47:24.923Z,30.67
2022-11-16T12:50:07.440Z,30.65
2022-11-16T12:53:09.077Z,30.75
2022-11-16T12:56:07.355Z,30.83
2022-11-16T12:58:55.945Z,30.77
2022-11-16T13:01:39.309Z,30.71
2022-11-16T13:04:24.060Z,30.64
2022-11-16T13:07:11.389Z,30.72
2022-11-16T13:09:51.103Z,30.75
2022-11-16T13:15:21.576Z,30.67
2022-11-16T13:18:17.815Z,30.69
2022-11-16T13:20:52.653Z,30.66
2022-11-16T13:23:34.679Z,30.78
2022-11-16T13:26:12.744Z,30.77
2022-11-16T13:28:54.725Z,30.77
2022-11-16T13:31:34.010Z,30.79
2022-11-16T13:34:18.415Z,30.74
2022-11-16T13:36:49.981Z,30.74
2022-11-16T13:39:43.806Z,30.74
2022-11-16T13:42:17.083Z,30.77
2022-11-16T13:44:51.518Z,30.63
2022-11-16T13:47:29.904Z,30.60
2022-11-16T13:50:06.715Z,30.53
2022-11-16T13:55:48.960Z,30.64
2022-11-16T13:58:25.487Z,30.67
2022-11-16T14:01:10.125Z,30.70
2022-11-16T14:03:49.254Z,30.71
2022-11-16T14:06:22.607Z,30.76
2022-11-16T14:08:57.601Z,30.71
2022-11-16T14:11:42.539Z,30.78
2022-11-16T14:14:15.821Z,30.71
2022-11-16T14:16:47.947Z,30.78
2022-11-16T14:19:47.461Z,30.78
2022-11-16T14:22:23.874Z,30.75
2022-11-16T14:25:10.388Z,30.80
2022-11-16T14:28:21.939Z,30.86
2022-11-16T14:31:04.176Z,30.76
2022-11-16T14:33:38.439Z,30.72
2022-11-16T14:36:12.219Z,30.76
2022-11-16T14:38:47.443Z,30.68
2022-11-16T14:41:27.241Z,30.67
2022-11-16T14:44:00.646Z,30.66
2022-11-16T14:46:35.777Z,30.64
2022-11-16T14:49:07.106Z,30.65
2022-11-16T14:51:39.384Z,30.69
2022-11-16T14:54:42.838Z,30.72
2022-11-16T14:57:21.027Z,30.67
2022-11-16T14:59:52.376Z,30.79
2022-11-16T15:02:28.163Z,30.71
2022-11-16T15:04:58.449Z,30.67
2022-11-16T15:07:31.002Z,30.80
2022-11-16T15:10:02.887Z,30.75
2022-11-16T15:12:46.815Z,30.75
2022-11-16T15:15:22.211Z,30.71
2022-11-16T15:18:01.702Z,30.65
2022-11-16T15:20:36.012Z,30.64
2022-11-16T15:23:08.146Z,30.64
2022-11-16T15:25:44.415Z,30.62
2022-11-16T15:28:25.831Z,30.60
2022-11-16T15:30:57.383Z,30.61
2022-11-16T15:33:39.695Z,30.60
2022-11-16T15:36:33.885Z,30.60
2022-11-16T15:39:06.539Z,30.59
2022-11-16T15:41:39.354Z,30.57
2022-11-16T15:44:15.521Z,30.59
2022-11-16T15:46:52.665Z,30.58
2022-11-16T15:49:32.429Z,30.60
2022-11-16T15:52:03.436Z,30.59
2022-11-16T15:54:55.823Z,30.58
2022-11-16T15:57:27.061Z,30.57
2022-11-16T16:00:02.187Z,30.57
2022-11-16T16:02:34.878Z,30.55
2022-11-16T16:05:05.098Z,30.56
2022-11-16T16:07:43.501Z,30.55
2022-11-16T16:10:26.483Z,30.53
2022-11-16T16:12:59.674Z,30.55
2022-11-16T16:15:33.970Z,30.54
2022-11-16T16:18:06.604Z,30.53
2022-11-16T16:20:37.063Z,30.52
2022-11-16T16:23:13.822Z,30.53
2022-11-16T16:25:50.120Z,30.52
2022-11-16T16:28:20.859Z,30.52
2022-11-16T16:30:54.834Z,30.51
2022-11-16T16:33:30.685Z,30.51
2022-11-16T16:36:01.028Z,30.51
2022-11-16T16:38:31.652Z,30.50
2022-11-16T16:41:07.082Z,30.52
2022-11-16T16:43:37.743Z,30.52
2022-11-16T16:46:08.716Z,30.50
2022-11-16T16:48:44.368Z,30.51
2022-11-16T16:51:15.341Z,30.49
2022-11-16T16:53:45.552Z,30.48
2022-11-16T16:56:19.033Z,30.48
2022-11-16T16:58:49.306Z,30.48
2022-11-16T17:01:19.877Z,30.48
2022-11-16T17:03:50.203Z,30.47
2022-11-16T17:06:21.220Z,30.48
2022-11-16T17:08:51.498Z,30.46
2022-11-16T17:11:21.884Z,30.46
2022-11-16T17:13:52.648Z,30.47
2022-11-16T17:16:24.422Z,30.47
2022-11-16T17:19:00.587Z,30.45
2022-11-16T17:21:30.902Z,30.46
2022-11-16T17:24:01.229Z,30.47
2022-11-16T17:26:31.799Z,30.45
2022-11-16T17:29:02.120Z,30.47
2022-11-16T17:31:32.365Z,30.45
2022-11-16T17:34:03.606Z,30.44
2022-11-16T17:36:34.018Z,30.44
2022-11-16T17:39:04.296Z,30.45
2022-11-16T17:41:35.814Z,30.44
2022-11-16T17:44:06.204Z,30.43
2022-11-16T17:46:36.596Z,30.42
2022-11-16T17:49:06.860Z,30.43
2022-11-16T17:51:37.067Z,30.43
2022-11-16T17:54:07.491Z,30.44
2022-11-16T17:56:37.801Z,30.44
2022-11-16T17:59:08.074Z,30.42
2022-11-16T18:01:38.142Z,30.43
2022-11-16T18:04:08.234Z,30.45
2022-11-16T18:06:38.226Z,30.43
2022-11-16T18:09:08.262Z,30.43
2022-11-16T18:11:38.259Z,30.43
2022-11-16T18:14:08.471Z,30.44
2022-11-16T18:16:38.734Z,30.43
2022-11-16T18:19:09.651Z,30.43
2022-11-16T18:21:44.075Z,30.42
2022-11-16T18:24:16.969Z,30.44
2022-11-16T18:26:47.214Z,30.44
2022-11-16T18:29:18.089Z,30.40
2022-11-16T18:31:48.352Z,30.42
2022-11-16T18:34:18.970Z,30.40
2022-11-16T18:36:51.150Z,30.40
2022-11-16T18:39:21.471Z,30.39
2022-11-16T18:41:55.470Z,30.37
2022-11-16T18:44:25.809Z,30.38
2022-11-16T18:46:55.871Z,30.38
2022-11-16T18:49:25.968Z,30.41
2022-11-16T18:51:56.222Z,30.39
2022-11-16T18:54:26.428Z,30.41
2022-11-16T18:56:58.131Z,30.41
2022-11-16T18:59:28.364Z,30.37
2022-11-16T19:01:58.526Z,30.37
2022-11-16T19:04:30.586Z,30.37
2022-11-16T19:07:00.960Z,30.40
2022-11-16T19:09:31.170Z,30.39
2022-11-16T19:12:01.536Z,30.35
2022-11-16T19:14:31.869Z,30.37
2022-11-16T19:17:03.037Z,30.37
2022-11-16T19:19:33.466Z,30.36
2022-11-16T19:22:03.717Z,30.36
2022-11-16T19:24:33.940Z,30.36
2022-11-16T19:27:04.349Z,30.35
2022-11-16T19:29:34.590Z,30.36
2022-11-16T19:32:04.756Z,30.36
2022-11-16T19:34:34.769Z,30.35
2022-11-16T19:37:04.777Z,30.35
2022-11-16T19:39:34.764Z,30.35
2022-11-16T19:42:04.799Z,30.35
2022-11-16T19:44:34.854Z,30.35
2022-11-16T19:47:05.103Z,30.35
2022-11-16T19:49:35.345Z,30.35
2022-11-16T19:52:05.534Z,30.34
2022-11-16T19:54:35.567Z,30.32
2022-11-16T19:57:05.606Z,30.34
2022-11-16T19:59:36.457Z,30.35
2022-11-16T20:02:06.802Z,30.34
2022-11-16T20:04:38.722Z,30.32
2022-11-16T20:07:09.708Z,30.35
2022-11-16T20:09:39.825Z,30.33
2022-11-16T20:12:09.946Z,30.35
2022-11-16T20:14:40.227Z,30.34
2022-11-16T20:17:10.299Z,30.32
2022-11-16T20:19:40.372Z,30.32
2022-11-16T20:22:11.230Z,30.33
2022-11-16T20:24:41.478Z,30.31
2022-11-16T20:27:11.456Z,30.32
2022-11-16T20:29:41.641Z,30.32
2022-11-16T20:32:11.809Z,30.31
2022-11-16T20:34:41.938Z,30.31
2022-11-16T20:37:12.224Z,30.31
2022-11-16T20:39:44.082Z,30.29
2022-11-16T20:42:14.646Z,30.32
2022-11-16T20:44:44.939Z,30.32
2022-11-16T20:47:15.310Z,30.30
2022-11-16T20:49:45.537Z,30.27
2022-11-16T20:52:15.598Z,30.28
2022-11-16T20:54:45.897Z,30.29
2022-11-16T20:57:16.180Z,30.29
2022-11-16T20:59:46.464Z,30.28
2022-11-16T21:02:16.473Z,30.30
2022-11-16T21:04:46.522Z,30.29
2022-11-16T21:07:16.627Z,30.29
2022-11-16T21:10:06.367Z,30.29
2022-11-16T21:12:54.785Z,30.28
2022-11-16T21:15:24.973Z,30.29
2022-11-16T21:17:55.218Z,30.27
2022-11-16T21:20:27.855Z,30.29
2022-11-16T21:22:58.326Z,30.26
2022-11-16T21:25:28.454Z,30.26
2022-11-16T21:27:59.250Z,30.26
2022-11-16T21:30:29.498Z,30.26
2022-11-16T21:32:59.717Z,30.26
2022-11-16T21:35:29.706Z,30.25
2022-11-16T21:38:00.136Z,30.26
2022-11-16T21:40:30.331Z,30.26
2022-11-16T21:43:00.313Z,30.26
2022-11-16T21:45:30.343Z,30.26
2022-11-16T21:48:00.720Z,30.25
2022-11-16T21:50:32.268Z,30.27
2022-11-16T21:53:03.197Z,30.27
2022-11-16T21:55:33.901Z,30.26
2022-11-16T21:58:08.268Z,30.26
2022-11-16T22:00:38.529Z,30.26
2022-11-16T22:03:08.568Z,30.24
2022-11-16T22:05:57.213Z,30.26
2022-11-16T22:08:27.475Z,30.26
2022-11-16T22:10:57.643Z,30.24
2022-11-16T22:13:27.941Z,30.25
2022-11-16T22:15:58.634Z,30.23
2022-11-16T22:18:28.754Z,30.23
2022-11-16T22:20:59.150Z,30.22
2022-11-16T22:23:30.253Z,30.21
2022-11-16T22:26:04.620Z,30.22
2022-11-16T22:28:36.027Z,30.24
2022-11-16T22:31:13.122Z,30.22
2022-11-16T22:33:44.074Z,30.25
2022-11-16T22:36:15.447Z,30.26
2022-11-16T22:38:46.677Z,30.26
2022-11-16T22:41:16.975Z,30.27
2022-11-16T22:43:47.501Z,30.27
2022-11-16T22:46:17.918Z,30.27
2022-11-16T22:48:49.985Z,30.29
2022-11-16T22:53:11.991Z,30.27
2022-11-16T22:55:42.265Z,30.25
2022-11-16T22:58:12.260Z,30.23
2022-11-16T23:00:42.504Z,30.19
2022-11-16T23:03:12.782Z,30.12
2022-11-16T23:05:42.779Z,30.11
2022-11-16T23:08:12.956Z,30.13
2022-11-16T23:11:02.922Z,30.10
2022-11-16T23:13:51.654Z,30.13
2022-11-16T23:16:21.814Z,30.12
2022-11-16T23:18:51.840Z,30.13
2022-11-16T23:21:40.371Z,30.12
2022-11-16T23:24:33.995Z,30.13
2022-11-16T23:27:24.452Z,30.14
2022-11-16T23:29:55.658Z,30.13
2022-11-16T23:32:25.853Z,30.15
2022-11-16T23:34:55.966Z,30.14
2022-11-16T23:37:26.492Z,30.15
2022-11-16T23:39:56.813Z,30.14
2022-11-16T23:42:45.647Z,30.14
2022-11-16T23:45:16.063Z,30.14
2022-11-16T23:47:46.675Z,30.13
2022-11-16T23:50:17.255Z,30.14
2022-11-16T23:52:47.277Z,30.12
2022-11-16T23:55:17.374Z,30.13
2022-11-16T23:57:47.407Z,30.12
